sensor_id;sensor_type;location;lat;lon;timestamp;pressure;altitude;pressure_sealevel;temperature;humidity
55373;BME280;41249;47.838;16.490;2023-01-26T00:01:20;100012.28;;;1.03;79.20
55373;BME280;41249;47.838;16.490;2023-01-26T00:03:47;100011.00;;;1.00;78.96
55373;BME280;41249;47.838;16.490;2023-01-26T00:06:16;100005.03;;;0.98;78.65
55373;BME280;41249;47.838;16.490;2023-01-26T00:08:45;100005.81;;;0.99;78.76
55373;BME280;41249;47.838;16.490;2023-01-26T00:11:14;100003.91;;;0.99;79.09
55373;BME280;41249;47.838;16.490;2023-01-26T00:13:41;99994.59;;;1.00;79.04
55373;BME280;41249;47.838;16.490;2023-01-26T00:16:10;99988.78;;;1.02;79.03
55373;BME280;41249;47.838;16.490;2023-01-26T00:18:38;99990.09;;;1.04;78.77
55373;BME280;41249;47.838;16.490;2023-01-26T00:21:06;99996.53;;;1.08;79.25
55373;BME280;41249;47.838;16.490;2023-01-26T00:23:34;100001.34;;;1.11;78.86
55373;BME280;41249;47.838;16.490;2023-01-26T00:26:01;99994.28;;;1.10;79.02
55373;BME280;41249;47.838;16.490;2023-01-26T00:28:28;99991.56;;;1.10;78.89
55373;BME280;41249;47.838;16.490;2023-01-26T00:31:04;99992.03;;;1.12;79.32
55373;BME280;41249;47.838;16.490;2023-01-26T00:33:31;99999.44;;;1.12;79.26
55373;BME280;41249;47.838;16.490;2023-01-26T00:35:58;99995.88;;;1.11;78.92
55373;BME280;41249;47.838;16.490;2023-01-26T00:38:25;99989.94;;;1.09;78.81
55373;BME280;41249;47.838;16.490;2023-01-26T00:40:53;99988.81;;;1.10;79.00
55373;BME280;41249;47.838;16.490;2023-01-26T00:43:19;99991.22;;;1.12;79.24
55373;BME280;41249;47.838;16.490;2023-01-26T00:45:46;99987.69;;;1.11;79.41
55373;BME280;41249;47.838;16.490;2023-01-26T00:48:14;99981.41;;;1.11;79.23
55373;BME280;41249;47.838;16.490;2023-01-26T00:50:40;99989.31;;;1.12;79.33
55373;BME280;41249;47.838;16.490;2023-01-26T00:53:07;99989.78;;;1.14;79.33
55373;BME280;41249;47.838;16.490;2023-01-26T00:55:34;99988.00;;;1.18;79.74
55373;BME280;41249;47.838;16.490;2023-01-26T00:58:02;99991.56;;;1.19;80.00
55373;BME280;41249;47.838;16.490;2023-01-26T01:00:30;99982.53;;;1.18;79.78
55373;BME280;41249;47.838;16.490;2023-01-26T01:02:58;99974.66;;;1.17;79.70
55373;BME280;41249;47.838;16.490;2023-01-26T01:05:26;99984.00;;;1.16;79.86
55373;BME280;41249;47.838;16.490;2023-01-26T01:07:53;99975.78;;;1.16;79.97
55373;BME280;41249;47.838;16.490;2023-01-26T01:10:22;99979.81;;;1.18;80.13
55373;BME280;41249;47.838;16.490;2023-01-26T01:12:49;99974.03;;;1.20;80.25
55373;BME280;41249;47.838;16.490;2023-01-26T01:15:15;99970.97;;;1.21;79.94
55373;BME280;41249;47.838;16.490;2023-01-26T01:17:42;99974.84;;;1.20;80.50
55373;BME280;41249;47.838;16.490;2023-01-26T01:20:10;99969.88;;;1.22;80.29
55373;BME280;41249;47.838;16.490;2023-01-26T01:22:37;99961.81;;;1.26;80.74
55373;BME280;41249;47.838;16.490;2023-01-26T01:25:04;99959.25;;;1.29;81.20
55373;BME280;41249;47.838;16.490;2023-01-26T01:27:31;99961.97;;;1.29;81.54
55373;BME280;41249;47.838;16.490;2023-01-26T01:29:57;99953.16;;;1.32;81.50
55373;BME280;41249;47.838;16.490;2023-01-26T01:32:24;99956.03;;;1.36;81.53
55373;BME280;41249;47.838;16.490;2023-01-26T01:34:50;99955.72;;;1.37;81.63
55373;BME280;41249;47.838;16.490;2023-01-26T01:37:17;99949.63;;;1.40;82.17
55373;BME280;41249;47.838;16.490;2023-01-26T01:39:43;99944.63;;;1.42;82.06
55373;BME280;41249;47.838;16.490;2023-01-26T01:42:10;99942.38;;;1.44;82.32
55373;BME280;41249;47.838;16.490;2023-01-26T01:44:37;99933.81;;;1.46;82.55
55373;BME280;41249;47.838;16.490;2023-01-26T01:47:10;99931.59;;;1.48;82.22
55373;BME280;41249;47.838;16.490;2023-01-26T01:49:45;99934.00;;;1.49;82.57
55373;BME280;41249;47.838;16.490;2023-01-26T01:52:24;99932.06;;;1.50;82.76
55373;BME280;41249;47.838;16.490;2023-01-26T01:55:00;99924.34;;;1.52;82.93
55373;BME280;41249;47.838;16.490;2023-01-26T01:57:41;99920.81;;;1.52;82.90
55373;BME280;41249;47.838;16.490;2023-01-26T02:00:15;99920.81;;;1.52;82.77
55373;BME280;41249;47.838;16.490;2023-01-26T02:02:45;99915.31;;;1.52;82.64
55373;BME280;41249;47.838;16.490;2023-01-26T02:05:35;99916.47;;;1.51;82.51
55373;BME280;41249;47.838;16.490;2023-01-26T02:08:04;99907.13;;;1.52;82.78
55373;BME280;41249;47.838;16.490;2023-01-26T02:10:32;99907.59;;;1.54;82.93
55373;BME280;41249;47.838;16.490;2023-01-26T02:12:58;99909.22;;;1.55;82.76
55373;BME280;41249;47.838;16.490;2023-01-26T02:15:26;99905.38;;;1.56;83.16
55373;BME280;41249;47.838;16.490;2023-01-26T02:17:53;99906.63;;;1.58;83.20
55373;BME280;41249;47.838;16.490;2023-01-26T02:28:21;99894.72;;;1.54;83.04
55373;BME280;41249;47.838;16.490;2023-01-26T02:30:48;99887.31;;;1.55;82.86
55373;BME280;41249;47.838;16.490;2023-01-26T02:33:27;99876.22;;;1.51;82.54
55373;BME280;41249;47.838;16.490;2023-01-26T02:35:54;99875.75;;;1.49;82.09
55373;BME280;41249;47.838;16.490;2023-01-26T02:38:22;99879.91;;;1.46;81.95
55373;BME280;41249;47.838;16.490;2023-01-26T02:41:00;99868.97;;;1.46;82.51
55373;BME280;41249;47.838;16.490;2023-01-26T02:43:29;99868.69;;;1.48;82.76
55373;BME280;41249;47.838;16.490;2023-01-26T02:45:55;99865.94;;;1.48;82.51
55373;BME280;41249;47.838;16.490;2023-01-26T02:48:22;99865.59;;;1.49;82.40
55373;BME280;41249;47.838;16.490;2023-01-26T02:51:07;99859.78;;;1.51;82.81
55373;BME280;41249;47.838;16.490;2023-01-26T02:53:34;99854.50;;;1.55;82.98
55373;BME280;41249;47.838;16.490;2023-01-26T02:56:01;99861.59;;;1.56;82.87
55373;BME280;41249;47.838;16.490;2023-01-26T02:58:27;99852.22;;;1.57;83.11
55373;BME280;41249;47.838;16.490;2023-01-26T03:00:54;99853.84;;;1.58;83.40
55373;BME280;41249;47.838;16.490;2023-01-26T03:03:26;99857.69;;;1.57;83.18
55373;BME280;41249;47.838;16.490;2023-01-26T03:06:08;99855.44;;;1.59;83.32
55373;BME280;41249;47.838;16.490;2023-01-26T03:08:36;99857.06;;;1.60;83.50
55373;BME280;41249;47.838;16.490;2023-01-26T03:11:04;99853.50;;;1.59;83.63
55373;BME280;41249;47.838;16.490;2023-01-26T03:13:31;99838.53;;;1.57;83.37
55373;BME280;41249;47.838;16.490;2023-01-26T03:15:57;99850.13;;;1.54;83.06
55373;BME280;41249;47.838;16.490;2023-01-26T03:18:33;99834.22;;;1.56;83.60
55373;BME280;41249;47.838;16.490;2023-01-26T03:21:18;99836.47;;;1.54;83.19
55373;BME280;41249;47.838;16.490;2023-01-26T03:24:04;99840.34;;;1.53;83.02
55373;BME280;41249;47.838;16.490;2023-01-26T03:26:49;99830.03;;;1.49;82.68
55373;BME280;41249;47.838;16.490;2023-01-26T03:29:34;99823.63;;;1.45;82.50
55373;BME280;41249;47.838;16.490;2023-01-26T03:32:01;99819.91;;;1.41;81.88
55373;BME280;41249;47.838;16.490;2023-01-26T03:34:28;99823.28;;;1.38;81.83
55373;BME280;41249;47.838;16.490;2023-01-26T03:36:55;99822.34;;;1.34;81.67
55373;BME280;41249;47.838;16.490;2023-01-26T03:39:21;99819.44;;;1.31;81.40
55373;BME280;41249;47.838;16.490;2023-01-26T03:42:07;99826.34;;;1.28;81.36
55373;BME280;41249;47.838;16.490;2023-01-26T03:44:52;99817.53;;;1.23;80.96
55373;BME280;41249;47.838;16.490;2023-01-26T03:47:37;99820.09;;;1.19;81.00
55373;BME280;41249;47.838;16.490;2023-01-26T03:50:22;99820.72;;;1.16;80.27
55373;BME280;41249;47.838;16.490;2023-01-26T03:53:19;99820.09;;;1.11;80.79
55373;BME280;41249;47.838;16.490;2023-01-26T03:56:05;99816.56;;;1.10;80.53
55373;BME280;41249;47.838;16.490;2023-01-26T03:58:52;99808.19;;;1.07;80.53
55373;BME280;41249;47.838;16.490;2023-01-26T04:01:21;99799.84;;;1.03;80.46
55373;BME280;41249;47.838;16.490;2023-01-26T04:03:53;99804.81;;;1.01;80.29
55373;BME280;41249;47.838;16.490;2023-01-26T04:06:41;99801.94;;;0.98;80.05
55373;BME280;41249;47.838;16.490;2023-01-26T04:09:27;99796.78;;;0.96;80.15
55373;BME280;41249;47.838;16.490;2023-01-26T04:11:53;99801.13;;;0.97;80.02
55373;BME280;41249;47.838;16.490;2023-01-26T04:14:20;99802.06;;;1.01;80.68
55373;BME280;41249;47.838;16.490;2023-01-26T04:17:17;99800.63;;;1.04;81.11
55373;BME280;41249;47.838;16.490;2023-01-26T04:20:04;99795.34;;;1.07;81.24
55373;BME280;41249;47.838;16.490;2023-01-26T04:22:49;99788.41;;;1.10;81.31
55373;BME280;41249;47.838;16.490;2023-01-26T04:25:18;99781.50;;;1.12;81.65
55373;BME280;41249;47.838;16.490;2023-01-26T04:27:46;99784.72;;;1.14;81.95
55373;BME280;41249;47.838;16.490;2023-01-26T04:30:13;99780.06;;;1.15;82.13
55373;BME280;41249;47.838;16.490;2023-01-26T04:32:40;99782.16;;;1.18;82.25
55373;BME280;41249;47.838;16.490;2023-01-26T04:35:08;99787.28;;;1.19;82.65
55373;BME280;41249;47.838;16.490;2023-01-26T04:37:35;99784.22;;;1.21;82.57
55373;BME280;41249;47.838;16.490;2023-01-26T04:40:02;99771.81;;;1.23;82.79
55373;BME280;41249;47.838;16.490;2023-01-26T04:42:29;99775.84;;;1.26;82.79
55373;BME280;41249;47.838;16.490;2023-01-26T04:44:56;99773.44;;;1.24;83.41
55373;BME280;41249;47.838;16.490;2023-01-26T04:47:23;99765.72;;;1.26;83.16
55373;BME280;41249;47.838;16.490;2023-01-26T04:49:49;99770.06;;;1.27;83.03
55373;BME280;41249;47.838;16.490;2023-01-26T04:52:16;99764.25;;;1.29;83.79
55373;BME280;41249;47.838;16.490;2023-01-26T04:54:42;99762.81;;;1.31;83.38
55373;BME280;41249;47.838;16.490;2023-01-26T04:57:09;99763.63;;;1.32;83.46
55373;BME280;41249;47.838;16.490;2023-01-26T04:59:36;99765.69;;;1.35;83.41
55373;BME280;41249;47.838;16.490;2023-01-26T05:02:03;99763.78;;;1.35;83.69
55373;BME280;41249;47.838;16.490;2023-01-26T05:04:30;99761.03;;;1.35;83.86
55373;BME280;41249;47.838;16.490;2023-01-26T05:06:57;99759.91;;;1.36;83.66
55373;BME280;41249;47.838;16.490;2023-01-26T05:09:23;99756.84;;;1.38;83.49
55373;BME280;41249;47.838;16.490;2023-01-26T05:11:50;99760.38;;;1.38;83.68
55373;BME280;41249;47.838;16.490;2023-01-26T05:14:16;99756.19;;;1.41;84.01
55373;BME280;41249;47.838;16.490;2023-01-26T05:16:43;99752.31;;;1.42;83.65
55373;BME280;41249;47.838;16.490;2023-01-26T05:19:10;99749.25;;;1.43;83.66
55373;BME280;41249;47.838;16.490;2023-01-26T05:21:36;99754.72;;;1.43;83.32
55373;BME280;41249;47.838;16.490;2023-01-26T05:24:03;99758.25;;;1.44;83.63
55373;BME280;41249;47.838;16.490;2023-01-26T05:26:29;99756.34;;;1.44;83.54
55373;BME280;41249;47.838;16.490;2023-01-26T05:28:56;99756.81;;;1.46;83.72
55373;BME280;41249;47.838;16.490;2023-01-26T05:31:23;99758.44;;;1.47;83.59
55373;BME280;41249;47.838;16.490;2023-01-26T05:33:49;99758.75;;;1.46;83.36
55373;BME280;41249;47.838;16.490;2023-01-26T05:36:16;99754.06;;;1.46;83.45
55373;BME280;41249;47.838;16.490;2023-01-26T05:38:42;99754.88;;;1.47;83.52
55373;BME280;41249;47.838;16.490;2023-01-26T05:41:09;99755.22;;;1.45;83.71
55373;BME280;41249;47.838;16.490;2023-01-26T05:43:35;99761.16;;;1.47;83.48
55373;BME280;41249;47.838;16.490;2023-01-26T05:46:02;99756.00;;;1.46;83.74
55373;BME280;41249;47.838;16.490;2023-01-26T05:48:29;99757.97;;;1.45;83.44
55373;BME280;41249;47.838;16.490;2023-01-26T05:50:55;99748.59;;;1.46;83.36
55373;BME280;41249;47.838;16.490;2023-01-26T05:53:23;99754.06;;;1.46;83.44
55373;BME280;41249;47.838;16.490;2023-01-26T05:55:50;99754.06;;;1.46;83.59
55373;BME280;41249;47.838;16.490;2023-01-26T05:58:16;99748.59;;;1.46;83.45
55373;BME280;41249;47.838;16.490;2023-01-26T06:00:43;99753.28;;;1.46;83.37
55373;BME280;41249;47.838;16.490;2023-01-26T06:03:09;99756.50;;;1.48;83.83
55373;BME280;41249;47.838;16.490;2023-01-26T06:05:36;99756.50;;;1.48;83.78
55373;BME280;41249;47.838;16.490;2023-01-26T06:08:04;99752.97;;;1.47;83.45
55373;BME280;41249;47.838;16.490;2023-01-26T06:10:31;99752.97;;;1.47;83.92
55373;BME280;41249;47.838;16.490;2023-01-26T06:12:59;99756.50;;;1.48;83.93
55373;BME280;41249;47.838;16.490;2023-01-26T06:15:26;99756.50;;;1.48;83.83
55373;BME280;41249;47.838;16.490;2023-01-26T06:17:52;99761.63;;;1.49;84.05
55373;BME280;41249;47.838;16.490;2023-01-26T06:20:19;99754.25;;;1.50;84.11
55373;BME280;41249;47.838;16.490;2023-01-26T06:22:45;99755.69;;;1.47;83.89
55373;BME280;41249;47.838;16.490;2023-01-26T06:25:12;99756.50;;;1.48;84.09
55373;BME280;41249;47.838;16.490;2023-01-26T06:27:38;99760.34;;;1.47;83.89
55373;BME280;41249;47.838;16.490;2023-01-26T06:30:08;99758.75;;;1.46;83.87
55373;BME280;41249;47.838;16.490;2023-01-26T06:32:36;99755.69;;;1.47;83.42
55373;BME280;41249;47.838;16.490;2023-01-26T06:35:03;99754.25;;;1.50;84.09
55373;BME280;41249;47.838;16.490;2023-01-26T06:37:31;99748.44;;;1.52;83.83
55373;BME280;41249;47.838;16.490;2023-01-26T06:39:58;99749.25;;;1.52;84.01
55373;BME280;41249;47.838;16.490;2023-01-26T06:42:25;99747.63;;;1.51;83.98
55373;BME280;41249;47.838;16.490;2023-01-26T06:44:51;99747.63;;;1.51;83.87
55373;BME280;41249;47.838;16.490;2023-01-26T06:47:18;99745.69;;;1.52;83.99
55373;BME280;41249;47.838;16.490;2023-01-26T06:49:45;99745.69;;;1.52;84.00
55373;BME280;41249;47.838;16.490;2023-01-26T06:52:21;99750.84;;;1.53;83.35
55373;BME280;41249;47.838;16.490;2023-01-26T06:54:52;99742.66;;;1.53;83.31
55373;BME280;41249;47.838;16.490;2023-01-26T06:57:18;99748.13;;;1.53;83.23
55373;BME280;41249;47.838;16.490;2023-01-26T06:59:45;99746.16;;;1.54;83.20
55373;BME280;41249;47.838;16.490;2023-01-26T07:02:16;99742.31;;;1.55;83.44
55373;BME280;41249;47.838;16.490;2023-01-26T07:04:44;99748.25;;;1.57;83.59
55373;BME280;41249;47.838;16.490;2023-01-26T07:07:10;99745.53;;;1.57;83.30
55373;BME280;41249;47.838;16.490;2023-01-26T07:09:37;99748.25;;;1.57;83.39
55373;BME280;41249;47.838;16.490;2023-01-26T07:12:04;99745.19;;;1.58;83.16
55373;BME280;41249;47.838;16.490;2023-01-26T07:14:31;99750.34;;;1.60;83.29
55373;BME280;41249;47.838;16.490;2023-01-26T07:16:58;99746.47;;;1.61;83.15
55373;BME280;41249;47.838;16.490;2023-01-26T07:19:25;99744.22;;;1.63;82.96
55373;BME280;41249;47.838;16.490;2023-01-26T07:21:51;99744.69;;;1.65;83.32
55373;BME280;41249;47.838;16.490;2023-01-26T07:24:18;99748.25;;;1.65;83.32
55373;BME280;41249;47.838;16.490;2023-01-26T07:26:47;99746.28;;;1.66;83.18
55373;BME280;41249;47.838;16.490;2023-01-26T07:29:13;99746.78;;;1.68;82.93
55373;BME280;41249;47.838;16.490;2023-01-26T07:31:40;99742.44;;;1.67;83.25
55373;BME280;41249;47.838;16.490;2023-01-26T07:34:08;99741.31;;;1.68;83.63
55373;BME280;41249;47.838;16.490;2023-01-26T07:36:34;99745.63;;;1.69;83.65
55373;BME280;41249;47.838;16.490;2023-01-26T07:39:01;99739.34;;;1.68;83.37
55373;BME280;41249;47.838;16.490;2023-01-26T07:41:27;99745.63;;;1.69;83.25
55373;BME280;41249;47.838;16.490;2023-01-26T07:43:54;99744.50;;;1.70;83.38
55373;BME280;41249;47.838;16.490;2023-01-26T07:46:21;99741.91;;;1.73;83.12
55373;BME280;41249;47.838;16.490;2023-01-26T07:48:47;99743.88;;;1.73;83.15
55373;BME280;41249;47.838;16.490;2023-01-26T07:51:14;99740.44;;;1.76;83.07
55373;BME280;41249;47.838;16.490;2023-01-26T07:53:41;99741.25;;;1.76;83.30
55373;BME280;41249;47.838;16.490;2023-01-26T07:56:11;99746.41;;;1.78;82.99
55373;BME280;41249;47.838;16.490;2023-01-26T07:58:38;99740.59;;;1.79;83.25
55373;BME280;41249;47.838;16.490;2023-01-26T08:01:15;99744.63;;;1.82;83.05
55373;BME280;41249;47.838;16.490;2023-01-26T08:03:41;99742.34;;;1.84;83.21
55373;BME280;41249;47.838;16.490;2023-01-26T08:06:11;99743.16;;;1.84;83.02
55373;BME280;41249;47.838;16.490;2023-01-26T08:08:41;99748.78;;;1.88;83.21
55373;BME280;41249;47.838;16.490;2023-01-26T08:11:09;99748.91;;;1.91;82.78
55373;BME280;41249;47.838;16.490;2023-01-26T08:13:36;99747.00;;;1.92;82.82
55373;BME280;41249;47.838;16.490;2023-01-26T08:16:05;99743.91;;;1.93;82.54
55373;BME280;41249;47.838;16.490;2023-01-26T08:18:34;99752.63;;;1.95;82.95
55373;BME280;41249;47.838;16.490;2023-01-26T08:21:01;99746.47;;;1.98;83.01
55373;BME280;41249;47.838;16.490;2023-01-26T08:23:28;99740.69;;;2.00;82.74
55373;BME280;41249;47.838;16.490;2023-01-26T08:25:54;99740.69;;;2.00;82.75
55373;BME280;41249;47.838;16.490;2023-01-26T08:28:25;99743.88;;;2.02;82.64
55373;BME280;41249;47.838;16.490;2023-01-26T08:30:52;99737.75;;;2.05;83.06
55373;BME280;41249;47.838;16.490;2023-01-26T08:33:18;99736.59;;;2.06;82.86
55373;BME280;41249;47.838;16.490;2023-01-26T08:35:45;99745.28;;;2.08;82.99
55373;BME280;41249;47.838;16.490;2023-01-26T08:38:11;99743.81;;;2.10;82.72
55373;BME280;41249;47.838;16.490;2023-01-26T08:40:38;99729.81;;;2.12;82.26
55373;BME280;41249;47.838;16.490;2023-01-26T08:43:05;99723.69;;;2.15;82.80
55373;BME280;41249;47.838;16.490;2023-01-26T08:45:31;99730.44;;;2.18;83.06
55373;BME280;41249;47.838;16.490;2023-01-26T08:47:58;99736.03;;;2.21;82.30
55373;BME280;41249;47.838;16.490;2023-01-26T08:50:25;99729.91;;;2.24;82.93
55373;BME280;41249;47.838;16.490;2023-01-26T08:52:54;99729.69;;;2.29;82.73
55373;BME280;41249;47.838;16.490;2023-01-26T08:55:21;99731.31;;;2.30;82.90
55373;BME280;41249;47.838;16.490;2023-01-26T08:57:51;99735.00;;;2.34;82.58
55373;BME280;41249;47.838;16.490;2023-01-26T09:00:21;99739.34;;;2.35;83.00
55373;BME280;41249;47.838;16.490;2023-01-26T09:02:48;99724.03;;;2.34;82.70
55373;BME280;41249;47.838;16.490;2023-01-26T09:05:16;99735.00;;;2.34;82.77
55373;BME280;41249;47.838;16.490;2023-01-26T09:07:44;99733.38;;;2.33;82.96
55373;BME280;41249;47.838;16.490;2023-01-26T09:10:11;99732.59;;;2.33;82.68
55373;BME280;41249;47.838;16.490;2023-01-26T09:12:38;99738.84;;;2.33;83.09
55373;BME280;41249;47.838;16.490;2023-01-26T09:15:07;99741.28;;;2.35;82.59
55373;BME280;41249;47.838;16.490;2023-01-26T09:17:34;99731.59;;;2.37;83.20
55373;BME280;41249;47.838;16.490;2023-01-26T09:20:02;99730.44;;;2.38;82.87
55373;BME280;41249;47.838;16.490;2023-01-26T09:22:29;99733.97;;;2.39;82.48
55373;BME280;41249;47.838;16.490;2023-01-26T09:24:56;99727.84;;;2.42;82.77
55373;BME280;41249;47.838;16.490;2023-01-26T09:27:22;99736.88;;;2.42;82.36
55373;BME280;41249;47.838;16.490;2023-01-26T09:29:49;99725.25;;;2.45;83.03
55373;BME280;41249;47.838;16.490;2023-01-26T09:32:16;99726.84;;;2.46;82.88
55373;BME280;41249;47.838;16.490;2023-01-26T09:34:43;99731.66;;;2.49;82.23
55373;BME280;41249;47.838;16.490;2023-01-26T09:37:11;99729.38;;;2.51;83.30
55373;BME280;41249;47.838;16.490;2023-01-26T09:39:38;99731.00;;;2.52;82.46
55373;BME280;41249;47.838;16.490;2023-01-26T09:45:11;99718.88;;;2.53;82.65
55373;BME280;41249;47.838;16.490;2023-01-26T09:50:18;99733.53;;;2.57;83.12
55373;BME280;41249;47.838;16.490;2023-01-26T09:52:54;99721.44;;;2.58;82.47
55373;BME280;41249;47.838;16.490;2023-01-26T09:55:23;99714.34;;;2.57;83.00
55373;BME280;41249;47.838;16.490;2023-01-26T09:58:13;99712.09;;;2.59;82.46
55373;BME280;41249;47.838;16.490;2023-01-26T10:00:59;99702.69;;;2.60;83.20
55373;BME280;41249;47.838;16.490;2023-01-26T10:03:34;99701.13;;;2.59;82.58
55373;BME280;41249;47.838;16.490;2023-01-26T10:08:47;99695.28;;;2.61;82.98
55373;BME280;41249;47.838;16.490;2023-01-26T10:11:24;99699.50;;;2.58;82.61
55373;BME280;41249;47.838;16.490;2023-01-26T10:13:56;99695.94;;;2.58;82.76
55373;BME280;41249;47.838;16.490;2023-01-26T10:16:24;99692.44;;;2.57;82.92
55373;BME280;41249;47.838;16.490;2023-01-26T10:19:05;99685.69;;;2.55;83.03
55373;BME280;41249;47.838;16.490;2023-01-26T10:21:39;99685.19;;;2.53;83.26
55373;BME280;41249;47.838;16.490;2023-01-26T10:24:11;99686.81;;;2.54;83.05
55373;BME280;41249;47.838;16.490;2023-01-26T10:26:39;99684.41;;;2.52;83.07
55373;BME280;41249;47.838;16.490;2023-01-26T10:29:12;99684.88;;;2.54;83.43
55373;BME280;41249;47.838;16.490;2023-01-26T10:31:41;99680.97;;;2.55;82.91
55373;BME280;41249;47.838;16.490;2023-01-26T10:34:24;99674.03;;;2.58;82.96
55373;BME280;41249;47.838;16.490;2023-01-26T10:37:14;99678.38;;;2.59;83.50
55373;BME280;41249;47.838;16.490;2023-01-26T10:39:57;99674.84;;;2.58;83.80
55373;BME280;41249;47.838;16.490;2023-01-26T10:42:30;99673.25;;;2.57;83.50
55373;BME280;41249;47.838;16.490;2023-01-26T10:44:58;99675.50;;;2.55;83.54
55373;BME280;41249;47.838;16.490;2023-01-26T10:47:27;99674.22;;;2.53;83.30
55373;BME280;41249;47.838;16.490;2023-01-26T10:50:24;99666.72;;;2.50;83.31
55373;BME280;41249;47.838;16.490;2023-01-26T10:53:01;99674.13;;;2.49;83.31
55373;BME280;41249;47.838;16.490;2023-01-26T10:55:30;99667.03;;;2.48;83.55
55373;BME280;41249;47.838;16.490;2023-01-26T10:57:58;99657.53;;;2.46;83.71
55373;BME280;41249;47.838;16.490;2023-01-26T11:00:32;99657.88;;;2.44;83.65
55373;BME280;41249;47.838;16.490;2023-01-26T11:03:03;99646.91;;;2.44;82.52
55373;BME280;41249;47.838;16.490;2023-01-26T11:05:31;99636.78;;;2.45;83.29
55373;BME280;41249;47.838;16.490;2023-01-26T11:07:57;99627.06;;;2.47;83.12
55373;BME280;41249;47.838;16.490;2023-01-26T11:10:31;99623.44;;;2.55;83.38
55373;BME280;41249;47.838;16.490;2023-01-26T11:13:25;99620.16;;;2.62;83.35
55373;BME280;41249;47.838;16.490;2023-01-26T11:16:19;99618.69;;;2.64;83.23
55373;BME280;41249;47.838;16.490;2023-01-26T11:19:12;99614.47;;;2.67;82.83
55373;BME280;41249;47.838;16.490;2023-01-26T11:27:01;99610.25;;;2.69;83.19
55373;BME280;41249;47.838;16.490;2023-01-26T11:32:50;99598.72;;;2.76;83.45
55373;BME280;41249;47.838;16.490;2023-01-26T11:46:10;99592.44;;;2.75;82.53
55373;BME280;41249;47.838;16.490;2023-01-26T11:49:01;99584.56;;;2.74;82.85
55373;BME280;41249;47.838;16.490;2023-01-26T11:54:42;99578.28;;;2.73;82.60
55373;BME280;41249;47.838;16.490;2023-01-26T12:00:03;99572.13;;;2.76;83.58
55373;BME280;41249;47.838;16.490;2023-01-26T12:02:38;99562.78;;;2.77;83.15
55373;BME280;41249;47.838;16.490;2023-01-26T12:05:18;99560.34;;;2.76;82.57
55373;BME280;41249;47.838;16.490;2023-01-26T12:07:53;99556.03;;;2.75;83.24
55373;BME280;41249;47.838;16.490;2023-01-26T12:10:39;99558.06;;;2.78;83.01
55373;BME280;41249;47.838;16.490;2023-01-26T12:13:15;99557.75;;;2.79;83.41
55373;BME280;41249;47.838;16.490;2023-01-26T12:15:59;99550.19;;;2.76;82.85
55373;BME280;41249;47.838;16.490;2023-01-26T12:18:41;99548.56;;;2.75;82.59
55373;BME280;41249;47.838;16.490;2023-01-26T12:21:29;99543.81;;;2.72;83.44
55373;BME280;41249;47.838;16.490;2023-01-26T12:24:02;99544.56;;;2.73;83.01
55373;BME280;41249;47.838;16.490;2023-01-26T12:26:35;99542.66;;;2.73;82.98
55373;BME280;41249;47.838;16.490;2023-01-26T12:29:28;99549.94;;;2.69;82.59
55373;BME280;41249;47.838;16.490;2023-01-26T12:34:26;99539.31;;;2.68;83.34
55373;BME280;41249;47.838;16.490;2023-01-26T12:39:44;99536.47;;;2.64;83.76
55373;BME280;41249;47.838;16.490;2023-01-26T12:42:37;99537.28;;;2.65;83.41
55373;BME280;41249;47.838;16.490;2023-01-26T12:45:13;99537.59;;;2.63;83.22
55373;BME280;41249;47.838;16.490;2023-01-26T12:47:48;99528.69;;;2.66;83.33
55373;BME280;41249;47.838;16.490;2023-01-26T12:50:25;99524.03;;;2.67;83.31
55373;BME280;41249;47.838;16.490;2023-01-26T12:52:58;99523.88;;;2.63;83.02
55373;BME280;41249;47.838;16.490;2023-01-26T12:55:39;99526.19;;;2.61;82.99
55373;BME280;41249;47.838;16.490;2023-01-26T12:58:22;99524.56;;;2.60;83.03
55373;BME280;41249;47.838;16.490;2023-01-26T13:00:52;99526.19;;;2.61;83.04
55373;BME280;41249;47.838;16.490;2023-01-26T13:03:30;99530.03;;;2.60;82.71
55373;BME280;41249;47.838;16.490;2023-01-26T13:11:56;99512.47;;;2.61;83.03
55373;BME280;41249;47.838;16.490;2023-01-26T13:17:39;99507.22;;;2.56;83.28
55373;BME280;41249;47.838;16.490;2023-01-26T13:29:56;99515.75;;;2.43;82.44
55373;BME280;41249;47.838;16.490;2023-01-26T13:34:56;99523.84;;;2.39;82.37
55373;BME280;41249;47.838;16.490;2023-01-26T13:40:04;99518.72;;;2.38;82.97
55373;BME280;41249;47.838;16.490;2023-01-26T13:42:36;99527.59;;;2.35;82.79
55373;BME280;41249;47.838;16.490;2023-01-26T13:45:19;99528.41;;;2.35;82.51
55373;BME280;41249;47.838;16.490;2023-01-26T13:47:49;99523.25;;;2.34;82.57
55373;BME280;41249;47.838;16.490;2023-01-26T13:52:48;99529.06;;;2.32;82.87
55373;BME280;41249;47.838;16.490;2023-01-26T13:55:26;99530.66;;;2.33;82.83
55373;BME280;41249;47.838;16.490;2023-01-26T13:58:14;99529.75;;;2.29;82.96
55373;BME280;41249;47.838;16.490;2023-01-26T14:00:42;99528.47;;;2.27;82.67
55373;BME280;41249;47.838;16.490;2023-01-26T14:03:22;99525.59;;;2.23;83.18
55373;BME280;41249;47.838;16.490;2023-01-26T14:06:01;99530.75;;;2.25;82.80
55373;BME280;41249;47.838;16.490;2023-01-26T14:08:30;99532.69;;;2.24;83.16
55373;BME280;41249;47.838;16.490;2023-01-26T14:10:59;99527.22;;;2.24;82.56
55373;BME280;41249;47.838;16.490;2023-01-26T14:13:33;99534.97;;;2.22;82.89
55373;BME280;41249;47.838;16.490;2023-01-26T14:16:02;99530.16;;;2.19;82.62
55373;BME280;41249;47.838;16.490;2023-01-26T14:18:33;99526.00;;;2.13;82.44
55373;BME280;41249;47.838;16.490;2023-01-26T14:21:02;99530.22;;;2.10;82.93
55373;BME280;41249;47.838;16.490;2023-01-26T14:23:35;99527.38;;;2.07;82.02
55373;BME280;41249;47.838;16.490;2023-01-26T14:26:16;99537.88;;;2.05;82.02
55373;BME280;41249;47.838;16.490;2023-01-26T14:28:45;99531.22;;;2.06;82.50
55373;BME280;41249;47.838;16.490;2023-01-26T14:31:17;99535.59;;;2.07;82.25
55373;BME280;41249;47.838;16.490;2023-01-26T14:33:49;99530.41;;;2.05;82.22